sensor_id;sensor_type;location;lat;lon;timestamp;P1;durP1;ratioP1;P2;durP2;ratioP2
41943;SDS011;27636;52.610;13.244;2023-03-16T00:02:46;5.45;;;2.63;;
41943;SDS011;27636;52.610;13.244;2023-03-16T00:07:50;3.17;;;1.38;;
41943;SDS011;27636;52.610;13.244;2023-03-16T00:12:54;6.28;;;1.85;;
41943;SDS011;27636;52.610;13.244;2023-03-16T00:17:58;5.75;;;1.35;;
41943;SDS011;27636;52.610;13.244;2023-03-16T00:23:03;5.10;;;1.20;;
41943;SDS011;27636;52.610;13.244;2023-03-16T00:28:07;1.83;;;0.95;;
41943;SDS011;27636;52.610;13.244;2023-03-16T00:33:10;4.07;;;1.77;;
41943;SDS011;27636;52.610;13.244;2023-03-16T00:38:15;11.95;;;2.15;;
41943;SDS011;27636;52.610;13.244;2023-03-16T00:43:19;5.55;;;1.83;;
41943;SDS011;27636;52.610;13.244;2023-03-16T00:48:24;5.63;;;2.55;;
41943;SDS011;27636;52.610;13.244;2023-03-16T00:53:28;5.57;;;1.30;;
41943;SDS011;27636;52.610;13.244;2023-03-16T00:58:33;3.15;;;1.65;;
41943;SDS011;27636;52.610;13.244;2023-03-16T01:03:38;2.55;;;1.73;;
41943;SDS011;27636;52.610;13.244;2023-03-16T01:08:44;2.63;;;1.45;;
41943;SDS011;27636;52.610;13.244;2023-03-16T01:13:47;1.85;;;1.42;;
41943;SDS011;27636;52.610;13.244;2023-03-16T01:18:52;6.03;;;3.55;;
41943;SDS011;27636;52.610;13.244;2023-03-16T01:23:57;2.60;;;1.63;;
41943;SDS011;27636;52.610;13.244;2023-03-16T01:29:00;3.15;;;1.20;;
41943;SDS011;27636;52.610;13.244;2023-03-16T01:34:04;2.65;;;1.00;;
41943;SDS011;27636;52.610;13.244;2023-03-16T01:39:09;2.75;;;1.27;;
41943;SDS011;27636;52.610;13.244;2023-03-16T01:44:18;10.07;;;1.30;;
41943;SDS011;27636;52.610;13.244;2023-03-16T01:49:27;1.27;;;0.80;;
41943;SDS011;27636;52.610;13.244;2023-03-16T01:54:36;1.90;;;1.15;;
41943;SDS011;27636;52.610;13.244;2023-03-16T01:59:45;4.00;;;2.10;;
41943;SDS011;27636;52.610;13.244;2023-03-16T02:04:52;2.08;;;1.20;;
41943;SDS011;27636;52.610;13.244;2023-03-16T02:10:01;2.53;;;1.45;;
41943;SDS011;27636;52.610;13.244;2023-03-16T02:15:07;1.45;;;1.00;;
41943;SDS011;27636;52.610;13.244;2023-03-16T02:20:14;4.22;;;1.85;;
41943;SDS011;27636;52.610;13.244;2023-03-16T02:25:29;21.77;;;2.10;;
41943;SDS011;27636;52.610;13.244;2023-03-16T02:30:43;15.48;;;1.42;;
41943;SDS011;27636;52.610;13.244;2023-03-16T02:35:48;5.63;;;2.20;;
41943;SDS011;27636;52.610;13.244;2023-03-16T02:40:54;1.98;;;1.33;;
41943;SDS011;27636;52.610;13.244;2023-03-16T02:46:11;0.60;;;0.60;;
41943;SDS011;27636;52.610;13.244;2023-03-16T02:51:17;3.65;;;1.83;;
41943;SDS011;27636;52.610;13.244;2023-03-16T02:56:21;3.25;;;1.83;;
41943;SDS011;27636;52.610;13.244;2023-03-16T03:01:26;2.30;;;0.93;;
41943;SDS011;27636;52.610;13.244;2023-03-16T03:06:30;1.50;;;1.05;;
41943;SDS011;27636;52.610;13.244;2023-03-16T03:11:36;1.65;;;1.08;;
41943;SDS011;27636;52.610;13.244;2023-03-16T03:16:41;7.93;;;1.48;;
41943;SDS011;27636;52.610;13.244;2023-03-16T03:21:49;5.47;;;2.00;;
41943;SDS011;27636;52.610;13.244;2023-03-16T03:26:53;2.80;;;1.93;;
41943;SDS011;27636;52.610;13.244;2023-03-16T03:31:58;2.88;;;1.55;;
41943;SDS011;27636;52.610;13.244;2023-03-16T03:42:07;3.40;;;1.80;;
41943;SDS011;27636;52.610;13.244;2023-03-16T03:47:12;4.18;;;1.00;;
41943;SDS011;27636;52.610;13.244;2023-03-16T03:52:15;3.03;;;1.77;;
41943;SDS011;27636;52.610;13.244;2023-03-16T03:57:19;4.50;;;1.45;;
41943;SDS011;27636;52.610;13.244;2023-03-16T04:02:25;1.15;;;0.88;;
41943;SDS011;27636;52.610;13.244;2023-03-16T04:07:30;3.85;;;1.90;;
41943;SDS011;27636;52.610;13.244;2023-03-16T04:12:38;1.40;;;0.93;;
41943;SDS011;27636;52.610;13.244;2023-03-16T04:17:45;9.25;;;1.38;;
41943;SDS011;27636;52.610;13.244;2023-03-16T04:22:49;5.35;;;1.05;;
41943;SDS011;27636;52.610;13.244;2023-03-16T04:28:00;1.85;;;1.25;;
41943;SDS011;27636;52.610;13.244;2023-03-16T04:33:07;1.90;;;1.13;;
41943;SDS011;27636;52.610;13.244;2023-03-16T04:38:11;1.83;;;1.25;;
41943;SDS011;27636;52.610;13.244;2023-03-16T04:43:25;2.83;;;1.40;;
41943;SDS011;27636;52.610;13.244;2023-03-16T04:48:36;1.50;;;1.13;;
41943;SDS011;27636;52.610;13.244;2023-03-16T04:53:40;1.45;;;1.10;;
41943;SDS011;27636;52.610;13.244;2023-03-16T04:58:51;7.65;;;1.80;;
41943;SDS011;27636;52.610;13.244;2023-03-16T05:03:58;0.77;;;0.57;;
41943;SDS011;27636;52.610;13.244;2023-03-16T05:09:03;1.48;;;1.25;;
41943;SDS011;27636;52.610;13.244;2023-03-16T05:14:10;2.13;;;1.13;;
41943;SDS011;27636;52.610;13.244;2023-03-16T05:19:35;2.70;;;0.73;;
41943;SDS011;27636;52.610;13.244;2023-03-16T05:29:42;1.77;;;1.00;;
41943;SDS011;27636;52.610;13.244;2023-03-16T05:34:50;2.80;;;1.35;;
41943;SDS011;27636;52.610;13.244;2023-03-16T05:39:55;3.90;;;1.13;;
41943;SDS011;27636;52.610;13.244;2023-03-16T05:45:00;4.47;;;1.48;;
41943;SDS011;27636;52.610;13.244;2023-03-16T05:50:18;5.97;;;1.63;;
41943;SDS011;27636;52.610;13.244;2023-03-16T05:55:22;3.90;;;1.70;;
41943;SDS011;27636;52.610;13.244;2023-03-16T06:00:31;5.43;;;1.80;;
41943;SDS011;27636;52.610;13.244;2023-03-16T06:05:46;2.53;;;1.20;;
41943;SDS011;27636;52.610;13.244;2023-03-16T06:10:52;11.15;;;1.55;;
41943;SDS011;27636;52.610;13.244;2023-03-16T06:15:55;5.68;;;1.73;;
41943;SDS011;27636;52.610;13.244;2023-03-16T06:21:01;5.23;;;3.07;;
41943;SDS011;27636;52.610;13.244;2023-03-16T06:26:07;6.15;;;2.80;;
41943;SDS011;27636;52.610;13.244;2023-03-16T06:31:14;10.82;;;2.85;;
41943;SDS011;27636;52.610;13.244;2023-03-16T06:36:21;7.88;;;2.95;;
41943;SDS011;27636;52.610;13.244;2023-03-16T06:41:29;3.10;;;1.88;;
41943;SDS011;27636;52.610;13.244;2023-03-16T06:46:33;8.68;;;2.90;;
41943;SDS011;27636;52.610;13.244;2023-03-16T06:51:40;4.13;;;1.98;;
41943;SDS011;27636;52.610;13.244;2023-03-16T07:01:48;6.00;;;2.42;;
41943;SDS011;27636;52.610;13.244;2023-03-16T07:06:53;13.20;;;3.80;;
41943;SDS011;27636;52.610;13.244;2023-03-16T07:11:58;12.23;;;5.05;;
41943;SDS011;27636;52.610;13.244;2023-03-16T07:17:01;8.25;;;3.20;;
41943;SDS011;27636;52.610;13.244;2023-03-16T07:22:08;7.18;;;3.30;;
41943;SDS011;27636;52.610;13.244;2023-03-16T07:27:14;10.65;;;3.25;;
41943;SDS011;27636;52.610;13.244;2023-03-16T07:32:19;11.40;;;3.00;;
41943;SDS011;27636;52.610;13.244;2023-03-16T07:37:24;7.95;;;2.42;;
41943;SDS011;27636;52.610;13.244;2023-03-16T07:42:32;7.22;;;2.25;;
41943;SDS011;27636;52.610;13.244;2023-03-16T07:47:51;6.18;;;1.83;;
41943;SDS011;27636;52.610;13.244;2023-03-16T07:53:13;9.52;;;1.65;;
41943;SDS011;27636;52.610;13.244;2023-03-16T07:58:25;4.53;;;1.55;;
41943;SDS011;27636;52.610;13.244;2023-03-16T08:03:29;3.63;;;1.23;;
41943;SDS011;27636;52.610;13.244;2023-03-16T08:08:35;2.60;;;0.90;;
41943;SDS011;27636;52.610;13.244;2023-03-16T08:13:38;8.40;;;1.38;;
41943;SDS011;27636;52.610;13.244;2023-03-16T08:18:46;9.27;;;1.42;;
41943;SDS011;27636;52.610;13.244;2023-03-16T08:28:57;7.93;;;2.20;;
41943;SDS011;27636;52.610;13.244;2023-03-16T08:34:08;3.58;;;1.25;;
41943;SDS011;27636;52.610;13.244;2023-03-16T08:39:18;3.17;;;1.25;;
41943;SDS011;27636;52.610;13.244;2023-03-16T08:44:23;4.80;;;1.38;;
41943;SDS011;27636;52.610;13.244;2023-03-16T08:54:41;5.28;;;1.20;;
41943;SDS011;27636;52.610;13.244;2023-03-16T09:00:04;3.70;;;1.00;;
41943;SDS011;27636;52.610;13.244;2023-03-16T09:05:20;4.47;;;1.70;;
41943;SDS011;27636;52.610;13.244;2023-03-16T09:10:26;3.28;;;1.00;;
41943;SDS011;27636;52.610;13.244;2023-03-16T09:15:30;5.78;;;1.23;;
41943;SDS011;27636;52.610;13.244;2023-03-16T09:20:34;3.13;;;1.10;;
41943;SDS011;27636;52.610;13.244;2023-03-16T09:25:39;4.18;;;1.40;;
41943;SDS011;27636;52.610;13.244;2023-03-16T09:30:42;5.22;;;1.05;;
41943;SDS011;27636;52.610;13.244;2023-03-16T09:35:46;6.20;;;0.98;;
41943;SDS011;27636;52.610;13.244;2023-03-16T09:40:54;2.83;;;1.10;;
41943;SDS011;27636;52.610;13.244;2023-03-16T09:46:02;3.53;;;0.77;;
41943;SDS011;27636;52.610;13.244;2023-03-16T09:51:12;2.28;;;0.85;;
41943;SDS011;27636;52.610;13.244;2023-03-16T09:56:26;2.53;;;0.77;;
41943;SDS011;27636;52.610;13.244;2023-03-16T10:01:35;2.67;;;1.20;;
41943;SDS011;27636;52.610;13.244;2023-03-16T10:06:51;2.85;;;1.00;;
41943;SDS011;27636;52.610;13.244;2023-03-16T10:12:06;1.25;;;0.60;;
41943;SDS011;27636;52.610;13.244;2023-03-16T10:17:12;1.83;;;0.90;;
41943;SDS011;27636;52.610;13.244;2023-03-16T10:22:19;2.35;;;1.02;;
41943;SDS011;27636;52.610;13.244;2023-03-16T10:27:25;1.80;;;0.90;;
41943;SDS011;27636;52.610;13.244;2023-03-16T10:32:32;4.85;;;1.10;;
41943;SDS011;27636;52.610;13.244;2023-03-16T10:37:38;3.95;;;0.80;;
41943;SDS011;27636;52.610;13.244;2023-03-16T10:42:43;2.58;;;0.57;;
41943;SDS011;27636;52.610;13.244;2023-03-16T10:47:48;3.00;;;0.75;;
41943;SDS011;27636;52.610;13.244;2023-03-16T10:52:52;4.80;;;0.95;;
41943;SDS011;27636;52.610;13.244;2023-03-16T10:58:01;3.42;;;0.90;;
41943;SDS011;27636;52.610;13.244;2023-03-16T11:03:12;0.77;;;0.57;;
41943;SDS011;27636;52.610;13.244;2023-03-16T11:08:25;4.95;;;1.05;;
41943;SDS011;27636;52.610;13.244;2023-03-16T11:13:35;1.13;;;0.60;;
41943;SDS011;27636;52.610;13.244;2023-03-16T11:18:40;3.63;;;0.80;;
41943;SDS011;27636;52.610;13.244;2023-03-16T11:23:47;2.72;;;1.08;;
41943;SDS011;27636;52.610;13.244;2023-03-16T11:28:58;3.75;;;0.95;;
41943;SDS011;27636;52.610;13.244;2023-03-16T11:34:07;3.30;;;1.48;;
41943;SDS011;27636;52.610;13.244;2023-03-16T11:39:22;2.40;;;0.82;;
41943;SDS011;27636;52.610;13.244;2023-03-16T11:44:36;1.77;;;0.60;;
41943;SDS011;27636;52.610;13.244;2023-03-16T11:49:54;3.80;;;0.60;;
41943;SDS011;27636;52.610;13.244;2023-03-16T11:55:03;4.43;;;0.98;;
41943;SDS011;27636;52.610;13.244;2023-03-16T12:00:21;2.92;;;1.15;;
41943;SDS011;27636;52.610;13.244;2023-03-16T12:05:37;5.90;;;1.48;;
41943;SDS011;27636;52.610;13.244;2023-03-16T12:10:51;3.22;;;1.17;;
41943;SDS011;27636;52.610;13.244;2023-03-16T12:16:01;3.53;;;1.13;;
41943;SDS011;27636;52.610;13.244;2023-03-16T12:21:09;2.92;;;1.00;;
41943;SDS011;27636;52.610;13.244;2023-03-16T12:26:16;5.30;;;0.88;;
41943;SDS011;27636;52.610;13.244;2023-03-16T12:31:22;4.93;;;0.60;;
41943;SDS011;27636;52.610;13.244;2023-03-16T12:36:43;2.85;;;0.80;;
41943;SDS011;27636;52.610;13.244;2023-03-16T12:42:16;3.97;;;0.80;;
41943;SDS011;27636;52.610;13.244;2023-03-16T12:47:32;2.58;;;0.80;;
41943;SDS011;27636;52.610;13.244;2023-03-16T12:52:47;5.13;;;1.83;;
41943;SDS011;27636;52.610;13.244;2023-03-16T12:57:57;4.25;;;1.58;;
41943;SDS011;27636;52.610;13.244;2023-03-16T13:03:05;6.47;;;1.08;;
41943;SDS011;27636;52.610;13.244;2023-03-16T13:08:16;9.13;;;0.82;;
41943;SDS011;27636;52.610;13.244;2023-03-16T13:13:21;4.30;;;1.02;;
41943;SDS011;27636;52.610;13.244;2023-03-16T13:18:34;3.40;;;0.80;;
41943;SDS011;27636;52.610;13.244;2023-03-16T13:29:27;2.53;;;0.70;;
41943;SDS011;27636;52.610;13.244;2023-03-16T13:34:36;2.22;;;1.00;;
41943;SDS011;27636;52.610;13.244;2023-03-16T13:39:52;3.25;;;1.00;;
41943;SDS011;27636;52.610;13.244;2023-03-16T13:44:57;3.80;;;0.85;;
41943;SDS011;27636;52.610;13.244;2023-03-16T13:50:11;2.08;;;0.85;;
41943;SDS011;27636;52.610;13.244;2023-03-16T13:55:16;4.80;;;1.65;;
41943;SDS011;27636;52.610;13.244;2023-03-16T14:00:26;4.93;;;1.42;;
41943;SDS011;27636;52.610;13.244;2023-03-16T14:05:35;7.15;;;1.02;;
41943;SDS011;27636;52.610;13.244;2023-03-16T14:10:41;3.47;;;0.90;;
41943;SDS011;27636;52.610;13.244;2023-03-16T14:15:46;3.40;;;0.80;;
41943;SDS011;27636;52.610;13.244;2023-03-16T14:20:52;4.32;;;1.00;;
41943;SDS011;27636;52.610;13.244;2023-03-16T14:25:57;5.93;;;0.98;;
41943;SDS011;27636;52.610;13.244;2023-03-16T14:31:01;1.98;;;0.95;;
41943;SDS011;27636;52.610;13.244;2023-03-16T14:36:10;4.95;;;0.80;;
41943;SDS011;27636;52.610;13.244;2023-03-16T14:41:17;1.48;;;0.80;;
41943;SDS011;27636;52.610;13.244;2023-03-16T14:46:25;3.35;;;0.80;;
41943;SDS011;27636;52.610;13.244;2023-03-16T14:51:32;3.47;;;0.65;;
41943;SDS011;27636;52.610;13.244;2023-03-16T14:56:38;3.80;;;0.88;;
41943;SDS011;27636;52.610;13.244;2023-03-16T15:01:41;5.90;;;0.93;;
41943;SDS011;27636;52.610;13.244;2023-03-16T15:06:47;4.13;;;0.80;;
41943;SDS011;27636;52.610;13.244;2023-03-16T15:11:52;1.50;;;0.60;;
41943;SDS011;27636;52.610;13.244;2023-03-16T15:16:57;3.63;;;0.70;;
41943;SDS011;27636;52.610;13.244;2023-03-16T15:22:02;2.92;;;1.15;;
41943;SDS011;27636;52.610;13.244;2023-03-16T15:27:09;2.15;;;0.60;;
41943;SDS011;27636;52.610;13.244;2023-03-16T15:37:26;1.80;;;0.60;;
41943;SDS011;27636;52.610;13.244;2023-03-16T15:42:31;1.55;;;0.63;;
41943;SDS011;27636;52.610;13.244;2023-03-16T15:47:35;1.13;;;0.60;;
41943;SDS011;27636;52.610;13.244;2023-03-16T15:52:40;2.63;;;0.80;;
41943;SDS011;27636;52.610;13.244;2023-03-16T15:57:47;1.25;;;0.50;;
41943;SDS011;27636;52.610;13.244;2023-03-16T16:02:50;1.75;;;0.80;;
41943;SDS011;27636;52.610;13.244;2023-03-16T16:07:56;1.23;;;0.60;;
41943;SDS011;27636;52.610;13.244;2023-03-16T16:13:00;1.45;;;0.68;;
41943;SDS011;27636;52.610;13.244;2023-03-16T16:18:08;3.25;;;0.73;;
41943;SDS011;27636;52.610;13.244;2023-03-16T16:23:28;0.85;;;0.40;;
41943;SDS011;27636;52.610;13.244;2023-03-16T16:28:33;5.30;;;0.93;;
41943;SDS011;27636;52.610;13.244;2023-03-16T16:33:37;0.97;;;0.50;;
41943;SDS011;27636;52.610;13.244;2023-03-16T16:38:42;1.10;;;0.50;;
41943;SDS011;27636;52.610;13.244;2023-03-16T16:43:46;2.60;;;0.50;;
41943;SDS011;27636;52.610;13.244;2023-03-16T16:48:51;4.45;;;0.65;;
41943;SDS011;27636;52.610;13.244;2023-03-16T16:53:57;3.20;;;0.50;;
41943;SDS011;27636;52.610;13.244;2023-03-16T16:59:09;0.45;;;0.40;;
41943;SDS011;27636;52.610;13.244;2023-03-16T17:04:17;4.60;;;1.23;;
41943;SDS011;27636;52.610;13.244;2023-03-16T17:09:26;2.28;;;0.80;;
41943;SDS011;27636;52.610;13.244;2023-03-16T17:14:31;3.85;;;0.55;;
41943;SDS011;27636;52.610;13.244;2023-03-16T17:19:35;0.40;;;0.40;;
41943;SDS011;27636;52.610;13.244;2023-03-16T17:24:39;1.65;;;0.70;;
41943;SDS011;27636;52.610;13.244;2023-03-16T17:29:43;1.95;;;0.57;;
41943;SDS011;27636;52.610;13.244;2023-03-16T17:34:48;3.38;;;1.00;;
41943;SDS011;27636;52.610;13.244;2023-03-16T17:39:53;0.75;;;0.55;;
41943;SDS011;27636;52.610;13.244;2023-03-16T17:44:59;3.75;;;1.05;;
41943;SDS011;27636;52.610;13.244;2023-03-16T17:50:08;2.10;;;0.85;;
41943;SDS011;27636;52.610;13.244;2023-03-16T17:55:20;1.58;;;0.85;;
41943;SDS011;27636;52.610;13.244;2023-03-16T18:00:27;3.67;;;1.83;;
41943;SDS011;27636;52.610;13.244;2023-03-16T18:05:34;4.53;;;1.13;;
41943;SDS011;27636;52.610;13.244;2023-03-16T18:10:41;5.72;;;2.15;;
41943;SDS011;27636;52.610;13.244;2023-03-16T18:15:45;8.93;;;2.92;;
41943;SDS011;27636;52.610;13.244;2023-03-16T18:20:51;4.88;;;1.10;;
41943;SDS011;27636;52.610;13.244;2023-03-16T18:25:57;4.57;;;1.25;;
41943;SDS011;27636;52.610;13.244;2023-03-16T18:31:05;4.65;;;1.10;;
41943;SDS011;27636;52.610;13.244;2023-03-16T18:36:20;4.30;;;1.15;;
41943;SDS011;27636;52.610;13.244;2023-03-16T18:41:30;1.77;;;0.70;;
41943;SDS011;27636;52.610;13.244;2023-03-16T18:46:38;2.78;;;1.10;;
41943;SDS011;27636;52.610;13.244;2023-03-16T18:51:41;5.78;;;1.50;;
41943;SDS011;27636;52.610;13.244;2023-03-16T19:01:51;3.67;;;1.00;;
41943;SDS011;27636;52.610;13.244;2023-03-16T19:06:55;3.50;;;1.00;;
41943;SDS011;27636;52.610;13.244;2023-03-16T19:12:00;6.00;;;1.20;;
41943;SDS011;27636;52.610;13.244;2023-03-16T19:17:05;2.28;;;1.00;;
41943;SDS011;27636;52.610;13.244;2023-03-16T19:22:11;4.53;;;1.37;;
41943;SDS011;27636;52.610;13.244;2023-03-16T19:27:20;10.75;;;1.83;;
41943;SDS011;27636;52.610;13.244;2023-03-16T19:32:27;4.20;;;1.30;;
41943;SDS011;27636;52.610;13.244;2023-03-16T19:37:30;2.88;;;1.10;;
41943;SDS011;27636;52.610;13.244;2023-03-16T19:42:35;4.18;;;1.65;;
41943;SDS011;27636;52.610;13.244;2023-03-16T19:47:39;4.38;;;1.05;;
41943;SDS011;27636;52.610;13.244;2023-03-16T19:52:43;3.30;;;1.45;;
41943;SDS011;27636;52.610;13.244;2023-03-16T19:57:48;2.10;;;0.95;;
41943;SDS011;27636;52.610;13.244;2023-03-16T20:02:58;4.43;;;1.33;;
41943;SDS011;27636;52.610;13.244;2023-03-16T20:08:02;2.85;;;1.42;;
41943;SDS011;27636;52.610;13.244;2023-03-16T20:13:16;4.05;;;1.42;;
41943;SDS011;27636;52.610;13.244;2023-03-16T20:23:25;6.68;;;1.45;;
41943;SDS011;27636;52.610;13.244;2023-03-16T20:28:33;4.65;;;1.33;;
41943;SDS011;27636;52.610;13.244;2023-03-16T20:33:38;3.45;;;1.63;;
41943;SDS011;27636;52.610;13.244;2023-03-16T20:38:42;7.25;;;1.63;;
41943;SDS011;27636;52.610;13.244;2023-03-16T20:43:47;6.40;;;1.48;;
41943;SDS011;27636;52.610;13.244;2023-03-16T20:48:50;4.30;;;1.23;;
41943;SDS011;27636;52.610;13.244;2023-03-16T20:53:54;2.47;;;1.00;;
41943;SDS011;27636;52.610;13.244;2023-03-16T20:58:59;2.50;;;1.10;;
41943;SDS011;27636;52.610;13.244;2023-03-16T21:04:02;3.53;;;1.42;;
41943;SDS011;27636;52.610;13.244;2023-03-16T21:09:05;5.35;;;1.20;;
41943;SDS011;27636;52.610;13.244;2023-03-16T21:14:14;2.50;;;1.00;;
41943;SDS011;27636;52.610;13.244;2023-03-16T21:19:20;3.50;;;1.55;;
41943;SDS011;27636;52.610;13.244;2023-03-16T21:24:24;2.97;;;1.30;;
41943;SDS011;27636;52.610;13.244;2023-03-16T21:29:30;3.65;;;1.25;;
41943;SDS011;27636;52.610;13.244;2023-03-16T21:34:33;4.68;;;1.50;;
41943;SDS011;27636;52.610;13.244;2023-03-16T21:39:38;3.30;;;1.50;;
41943;SDS011;27636;52.610;13.244;2023-03-16T21:44:43;3.33;;;1.70;;
41943;SDS011;27636;52.610;13.244;2023-03-16T21:49:46;7.93;;;1.73;;
41943;SDS011;27636;52.610;13.244;2023-03-16T21:54:50;6.20;;;1.80;;
41943;SDS011;27636;52.610;13.244;2023-03-16T21:59:55;9.93;;;2.20;;
41943;SDS011;27636;52.610;13.244;2023-03-16T22:04:58;5.80;;;2.20;;
41943;SDS011;27636;52.610;13.244;2023-03-16T22:10:11;6.32;;;2.00;;
41943;SDS011;27636;52.610;13.244;2023-03-16T22:15:17;7.32;;;2.17;;
41943;SDS011;27636;52.610;13.244;2023-03-16T22:20:23;8.60;;;2.00;;
41943;SDS011;27636;52.610;13.244;2023-03-16T22:25:28;5.75;;;2.20;;
41943;SDS011;27636;52.610;13.244;2023-03-16T22:30:34;5.07;;;1.63;;
41943;SDS011;27636;52.610;13.244;2023-03-16T22:35:38;4.70;;;1.50;;
41943;SDS011;27636;52.610;13.244;2023-03-16T22:40:42;7.50;;;1.88;;
41943;SDS011;27636;52.610;13.244;2023-03-16T22:45:47;8.50;;;2.57;;
41943;SDS011;27636;52.610;13.244;2023-03-16T22:50:51;5.03;;;2.00;;
41943;SDS011;27636;52.610;13.244;2023-03-16T22:55:55;5.00;;;1.77;;
41943;SDS011;27636;52.610;13.244;2023-03-16T23:01:04;12.65;;;2.25;;
41943;SDS011;27636;52.610;13.244;2023-03-16T23:06:18;5.28;;;1.83;;
41943;SDS011;27636;52.610;13.244;2023-03-16T23:11:24;6.72;;;2.03;;
41943;SDS011;27636;52.610;13.244;2023-03-16T23:16:33;5.13;;;2.03;;
41943;SDS011;27636;52.610;13.244;2023-03-16T23:21:39;4.20;;;1.88;;
41943;SDS011;27636;52.610;13.244;2023-03-16T23:26:42;5.43;;;2.15;;
41943;SDS011;27636;52.610;13.244;2023-03-16T23:31:48;3.13;;;1.88;;
41943;SDS011;27636;52.610;13.244;2023-03-16T23:41:55;3.92;;;1.80;;
41943;SDS011;27636;52.610;13.244;2023-03-16T23:47:00;4.85;;;1.92;;
41943;SDS011;27636;52.610;13.244;2023-03-16T23:52:04;15.23;;;2.22;;
41943;SDS011;27636;52.610;13.244;2023-03-16T23:57:08;4.03;;;1.70;;
